NWS Home NWS Lubbock West Texas Mesonet Three hour changes as of 0716 PM, Mon Oct 23, 2017

Latest   N   C   S   Daily Sum   3hrΔ   24hrΔ   Soil Data 
Site Map   24hr Precip   72hr Precip   Google Plot


Station Time of Last Temp Now Temp 3h ago Delta-T Dewpoint Now Dewpoint 3hr ago Delta-Td 3hr Press Change (mB)
Reese Center  07:10 PM 65.5 75.5 -10 34.7 32.8 1.8 1.9
Abernathy  07:10 PM 63.8 74.6 -10.8 38.1 36 2.1 1.8
Plainview  07:10 PM 64.3 73.3 -9.1 38.6 36.7 1.9 1.8
Tahoka  07:10 PM 66.7 76.9 -10.2 36.2 34.2 2 1.9
Slaton  07:10 PM 67.9 76 -8.1 35.2 33.3 2 1.8
Levelland  07:10 PM 65.3 76.8 -11.5 33.8 31.8 2 1.8
Roaring Springs  07:10 PM 65.2 74.3 -9.1 41.2 40.8 0.4 0
Floydada  07:10 PM 62 75.2 -13.3 37.9 36.1 1.8 1.8
Ralls  07:10 PM 65.8 74.4 -8.6 34.7 34 0.7 1.8
Brownfield  07:10 PM 69.3 76.4 -7.1 34.8 33.7 1.1 1.7
Muleshoe  07:10 PM 62.8 72.4 -9.6 38.3 34.7 3.6 1.6
Morton  07:10 PM 66.5 76.2 -9.6 35 30.9 4.1 1.8
O'Donnell  07:10 PM 68.1 75.6 -7.5 34.9 33.6 1.3 1.8
Seagraves  07:10 PM 69.6 78.3 -8.7 36.4 33.5 2.9 1.9
Amherst  07:10 PM 63.3 73.6 -10.3 37 33.7 3.3 1.7
Plains  07:10 PM 66.8 77.1 -10.3 33.7 33.4 0.3 1.8
Lamesa  07:10 PM 69.4 79 -9.6 35.8 39.3 -3.5 2.1
Hart  07:10 PM 58.3 70.7 -12.5 39.8 36.8 3 1.9
Friona  07:10 PM 58.5 68 -9.5 37.9 37.7 0.2 1.8
Dimmitt  07:10 PM 57.9 68.2 -10.3 37.8 38.5 -0.7 1.9
Tulia  07:10 PM 60.2 70.4 -10.2 39.5 39.1 0.3 2.1
Silverton  07:10 PM 60.9 72.9 -12 35.8 36.8 -1 1.9
Post  07:10 PM 68.8 78.5 -9.7 35.3 34.7 0.6 1.8
Seminole  07:10 PM 69.9 82.1 -12.2 32.5 27.2 5.3 2.3
Gail  07:10 PM 70.8 80 -9.2 36.1 37 -0.9 2
White River Lake  07:10 PM 67.8 77.8 -10 36.5 35.3 1.2 1.7
Graham  07:10 PM 68.8 75.7 -6.8 35.9 35.3 0.7 1.9
Sundown  07:10 PM 65.3 77.3 -12 35.3 33.6 1.7 1.8
Anton  07:10 PM 65.9 76.1 -10.2 37.7 36.1 1.6 1.9
Fluvanna  07:10 PM 69.7 76.9 -7.1 34.4 34.4 -0.1 1.8
Spur  07:10 PM 68.9 77.6 -8.8 37.6 35.3 2.3 1.7
Northwest Lubbock  07:10 PM 68.1 77.3 -9.2 34.5 33.8 0.6 1.9
Guthrie  06:55 PM 69.9 78.5 -8.6 40.7 38.1 2.6 1.7
Clarendon  07:10 PM 60.9 71.9 -11 36.3 37.3 -0.9 2.2
Paducah  07:10 PM 66.7 76.3 -9.6 41.2 39.8 1.4 2
Snyder  07:10 PM 70.8 79.8 -9 37.3 39 -1.8 1.8
Memphis  07:10 PM 65.5 75.4 -9.9 36.3 37.6 -1.2 2.5
Jayton  07:10 PM 71.3 80.4 -9.1 37.3 33.8 3.5 2.1
Pampa  07:10 PM 58.3 66 -7.7 33.3 37 -3.7 1.6
Aspermont  07:10 PM 69.8 81.1 -11.3 40 35.2 4.8 2
Hereford  07:10 PM 58.6 67.7 -9.1 35.4 35.7 -0.3 1.8
Goodlett  07:10 PM 66.5 76.3 -9.8 37.8 38.3 -0.5 2.2
McLean  07:10 PM 61.2 69.6 -8.4 32.7 34.9 -2.2 1.8
Denver City  07:10 PM 66.4 78.5 -12 33.9 30.7 3.1 1.8
Lake Alan Henry  07:10 PM 70.4 78.9 -8.5 35.6 33.8 1.8 2
Wolfforth  07:10 PM 67.9 77.1 -9.2 34.5 32.7 1.8 1.8
Andrews  07:10 PM 71.2 85 -13.8 30.7 28.8 1.9 2.2
Turkey  07:10 PM 64.6 75.5 -10.9 38.6 38 0.5 2.1
Childress  07:10 PM 66.6 76.9 -10.3 35.7 39.4 -3.7 2.1
Tatum  07:10 PM 64.9 77.9 -13.1 35.5 35.1 0.4 1.6
Northfield  07:05 PM 66.3 77 -10.6 37.8 37.6 0.2 2.2
Dora  07:10 PM 61.7 74.4 -12.7 36.4 33.9 2.5 1.6
Northwest San Angelo  07:10 PM 77.4 87.6 -10.3 38.1 32.8 5.3 1.2
Saint Lawrence  07:10 PM 74.4 84.5 -10.2 33.8 29.7 4.1 1.3
Haskell  07:10 PM 67.5 78.8 -11.3 43.1 37.1 5.9 2.1
Wall  07:10 PM 73.2 86.1 -12.9 45.2 43.3 1.9 0.9
Seymour  07:10 PM 67.7 74.8 -7.1 46 43.6 2.5 2.2
Knox City  07:10 PM 68.3 78.3 -10 44.9 40.2 4.7 2.2
Guadalupe Mtns Park  07:10 PM 66 76.8 -10.8 29.3 23 6.2 0.7
Caprock Canyons   07:10 PM 65.2 73.3 -8.1 37.1 37.4 -0.4 2.1
Odell  07:10 PM 61.2 74.8 -13.7 47.1 44.4 2.7 1.9
Coyanosa  07:10 PM 79.7 86.9 -7.2 41.6 30.2 11.4 0.4
Big Lake  07:10 PM 76.7 84.5 -7.8 38.2 32 6.2 0.7
Junction  07:10 PM 74.2 84.4 -10.2 52.7 48.6 4.1 0.2
Hobbs  07:10 PM 69.6 81.4 -11.8 31.1 29.5 1.5 2
Canadian  03:40 PM 70 68.2 1.8 36.5 38.3 -1.8 0.2
Palo Duro Canyon State Park Rim  07:10 PM 61.3 68.5 -7.1 35.6 38.1 -2.5 1.8
Bootleg  07:10 PM 55.4 67.1 -11.7 36.1 37.3 -1.2 1.5
Sterling City  07:10 PM 75 84.2 -9.2 36.2 36.1 0.1 1.5
Mertzon  07:10 PM 73.9 87.1 -13.2 40.5 37.7 2.8 1
Persimmon Gap  07:10 PM 87.7 92.4 -4.7 23.4 23.8 -0.4 -0.4
Weinert  07:10 PM 67.9 77.8 -9.8 44.9 42.6 2.3 2.5
Claude 12 Southwest  07:10 PM 58 68.1 -10.1 36.8 38.7 -1.8 2
Amarillo 7 South Southeast  07:10 PM 57.2 66.5 -9.3 35.3 36.8 -1.5 1.6
Umbarger  07:10 PM 57.5 66.9 -9.4 37.2 38.2 -1 1.5
Lomax  07:10 PM 74.1 83 -8.9 38.5 36.6 1.9 1.7
Amarillo 9 North Northeast  07:10 PM 58.9 67.7 -8.8 36.2 37.4 -1.2 1.6
Aiken 3 West Southwest  07:10 PM 63.8 72.7 -8.9 37.6 38.2 -0.6 1.8
Sweetwater  07:10 PM 69 81.2 -12.2 38.8 39.4 -0.5 1.6
Dozier  07:10 PM 64.6 73.1 -8.4 37.2 39.4 -2.2 2
Amarillo 15 North Northwest  07:10 PM 58.4 68.2 -9.8 35.5 38.6 -3.1 1.6
Menard  07:10 PM 76.6 85.5 -8.9 46.1 46.5 -0.4 0.2
Tarzan  07:10 PM 71.8 81.6 -9.8 37.1 39.1 -2 2.1
Goodnight  07:10 PM 59.6 69.5 -10 37 39.3 -2.3 2
Boys Ranch   07:10 PM 60.4 68.7 -8.3 34.8 36.8 -2.1 1.6
Fort McKavett  07:10 PM 78.5 84.9 -6.4 45.5 50.3 -4.8 0.2
Fort Chadbourne  07:10 PM 73 84.2 -11.2 40.5 44.9 -4.5 1.4
Palo Duro Canyon State Park Floor  07:10 PM 63.3 74.3 -10.9 37.6 39.2 -1.7 1.8
Fort Lancaster  07:10 PM 83 89.7 -6.7 31.6 37.7 -6 0.9
Dell City 1N  07:10 PM 75.2 80.3 -5 43.8 33.2 10.6 0.1
Clyde  07:10 PM 67.9 80.2 -12.2 48.8 46.2 2.6 1.3
Snyder SSW  07:10 PM 71 80.9 -9.9 38.7 40 -1.4 1.9
Panhandle  07:10 PM 58.3 66.8 -8.6 35.6 37.3 -1.7 1.6
Vigo Park  07:10 PM 57.4 70.6 -13.2 37.4 38.3 -0.9 2.1
Welch  07:10 PM 70 77.8 -7.8 37.2 38.1 -0.9 1.9
Throckmorton  07:10 PM 68.5 77.4 -8.9 46.3 47.1 -0.9 2.2
Sierra Blanca  07:10 PM 77.5 80.3 -2.8 26.3 26.7 -0.5 -0.4
Fort Lewis CO  07:10 PM 62.3 69.8 -7.6 25 26.3 -1.3 0.1
New Home  07:10 PM 67.8 76.5 -8.7 37.1 37 0.1 1.9
McCamey  07:10 PM 79.8 85.1 -5.3 39.9 34.2 5.6 0.4
Stamford  07:10 PM 70.2 79.5 -9.3 45.7 41.5 4.2 2.1
Crowell  07:10 PM 68.8 76.1 -7.4 41.8 43.8 -2 2.1
Stinnett  07:10 PM 56.6 64.7 -8.1 32.4 35.8 -3.3 1.7
Colorado City  07:10 PM 72.2 83.5 -11.3 37 37.9 -0.8 2
Happy  07:10 PM 57.7 68.3 -10.7 38.6 38.7 -0.2 1.9
Endee  07:10 PM 58.8 68.8 -10 36.9 37.3 -0.5 1.5
Olton  07:10 PM 62.9 73.2 -10.3 36.2 33.3 2.9 1.8

West Texas Mesonet Home   Site Map/Menu  NWS Lubbock Soil Data  Daily Summary Page  24hr Precip  72hr Precip  Google Plot